createdAt,value
2022-10-12T00:00:39.825Z,5.33
2022-10-12T00:03:06.351Z,6.70
2022-10-12T00:05:32.820Z,6.57
2022-10-12T00:07:59.459Z,5.80
2022-10-12T00:10:25.973Z,4.07
2022-10-12T00:12:52.443Z,4.90
2022-10-12T00:15:19.003Z,6.73
2022-10-12T00:17:45.453Z,4.03
2022-10-12T00:20:12.292Z,4.97
2022-10-12T00:22:38.729Z,6.07
2022-10-12T00:25:05.677Z,5.33
2022-10-12T00:27:32.230Z,7.40
2022-10-12T00:29:58.720Z,7.33
2022-10-12T00:32:25.241Z,3.40
2022-10-12T00:34:51.789Z,4.07
2022-10-12T00:37:18.246Z,3.93
2022-10-12T00:39:44.823Z,5.47
2022-10-12T00:42:12.038Z,7.07
2022-10-12T00:44:44.889Z,4.90
2022-10-12T00:47:37.335Z,4.57
2022-10-12T00:50:18.318Z,5.43
2022-10-12T00:53:14.176Z,3.43
2022-10-12T00:55:47.555Z,8.03
2022-10-12T00:58:14.357Z,2.90
2022-10-12T01:00:41.967Z,7.07
2022-10-12T01:03:12.785Z,4.67
2022-10-12T01:05:40.433Z,5.77
2022-10-12T01:08:07.050Z,5.07
2022-10-12T01:10:33.565Z,5.70
2022-10-12T01:13:00.685Z,5.03
2022-10-12T01:15:34.377Z,4.83
2022-10-12T01:18:14.574Z,6.80
2022-10-12T01:20:49.772Z,4.90
2022-10-12T01:23:28.039Z,5.80
2022-10-12T01:26:17.056Z,5.60
2022-10-12T01:29:02.608Z,3.17
2022-10-12T01:31:38.039Z,4.87
2022-10-12T01:34:16.759Z,4.77
2022-10-12T01:36:48.825Z,7.00
2022-10-12T01:39:24.776Z,3.30
2022-10-12T01:41:56.853Z,5.93
2022-10-12T01:44:25.292Z,9.47
2022-10-12T01:46:54.049Z,4.83
2022-10-12T01:49:30.607Z,4.47
2022-10-12T01:52:21.271Z,2.73
2022-10-12T01:55:02.602Z,3.23
2022-10-12T01:57:49.904Z,3.13
2022-10-12T02:00:17.365Z,4.60
2022-10-12T02:02:46.795Z,3.20
2022-10-12T02:05:19.153Z,4.93
2022-10-12T02:07:54.125Z,3.00
2022-10-12T02:10:46.352Z,4.53
2022-10-12T02:13:15.201Z,5.03
2022-10-12T02:15:43.375Z,3.27
2022-10-12T02:18:14.519Z,4.20
2022-10-12T02:20:42.343Z,5.40
2022-10-12T02:23:10.422Z,2.70
2022-10-12T02:25:36.966Z,4.60
2022-10-12T02:28:13.737Z,2.77
2022-10-12T02:31:01.787Z,6.40
2022-10-12T02:33:56.827Z,4.67
2022-10-12T02:36:35.429Z,3.73
2022-10-12T02:39:09.380Z,4.20
2022-10-12T02:41:46.467Z,5.23
2022-10-12T02:44:20.309Z,3.50
2022-10-12T02:46:49.567Z,3.23
2022-10-12T02:49:17.734Z,4.93
2022-10-12T02:51:45.357Z,5.20
2022-10-12T02:54:12.686Z,5.80
2022-10-12T02:56:45.303Z,3.93
2022-10-12T02:59:13.779Z,5.33
2022-10-12T03:01:41.501Z,7.57
2022-10-12T03:04:08.842Z,4.30
2022-10-12T03:06:35.330Z,4.87
2022-10-12T03:09:02.043Z,5.80
2022-10-12T03:11:28.650Z,4.00
2022-10-12T03:13:55.827Z,7.17
2022-10-12T03:16:23.275Z,5.83
2022-10-12T03:18:50.105Z,3.10
2022-10-12T03:21:17.047Z,6.80
2022-10-12T03:23:43.495Z,6.13
2022-10-12T03:26:09.942Z,4.33
2022-10-12T03:28:36.507Z,3.87
2022-10-12T03:31:03.700Z,3.23
2022-10-12T03:33:30.165Z,2.37
2022-10-12T03:35:56.705Z,4.23
2022-10-12T03:38:23.156Z,4.13
2022-10-12T03:40:49.605Z,2.07
2022-10-12T03:43:17.159Z,4.97
2022-10-12T03:45:43.620Z,2.63
2022-10-12T03:48:10.115Z,2.43
2022-10-12T03:50:36.761Z,3.77
2022-10-12T03:53:05.093Z,4.87
2022-10-12T03:55:32.208Z,4.83
2022-10-12T03:57:58.748Z,6.50
2022-10-12T04:00:25.962Z,3.67
2022-10-12T04:02:52.518Z,4.27
2022-10-12T04:05:18.942Z,3.07
2022-10-12T04:07:45.524Z,2.67
2022-10-12T04:10:12.180Z,4.70
2022-10-12T04:12:38.657Z,2.10
2022-10-12T04:15:05.692Z,4.90
2022-10-12T04:17:32.186Z,5.40
2022-10-12T04:19:58.630Z,2.33
2022-10-12T04:22:25.186Z,3.13
2022-10-12T04:24:51.766Z,7.17
2022-10-12T04:27:18.267Z,2.57
2022-10-12T04:29:44.876Z,3.60
2022-10-12T04:32:12.635Z,4.83
2022-10-12T04:34:39.345Z,3.20
2022-10-12T04:37:05.891Z,5.63
2022-10-12T04:39:32.393Z,3.10
2022-10-12T04:41:58.858Z,6.10
2022-10-12T04:44:29.708Z,8.87
2022-10-12T04:46:58.663Z,3.60
2022-10-12T04:49:25.133Z,5.07
2022-10-12T04:51:51.567Z,2.90
2022-10-12T04:54:18.072Z,5.27
2022-10-12T04:56:47.938Z,5.83
2022-10-12T04:59:15.210Z,9.40
2022-10-12T05:01:41.986Z,8.53
2022-10-12T05:04:08.579Z,9.13
2022-10-12T05:06:35.039Z,5.03
2022-10-12T05:09:01.629Z,5.47
2022-10-12T05:11:28.094Z,6.17
2022-10-12T05:13:54.562Z,4.47
2022-10-12T05:16:21.296Z,6.57
2022-10-12T05:18:47.911Z,6.60
2022-10-12T05:21:14.508Z,5.73
2022-10-12T05:23:40.961Z,6.67
2022-10-12T05:27:10.813Z,3.17
2022-10-12T05:29:37.244Z,3.83
2022-10-12T05:32:03.845Z,11.43
2022-10-12T05:34:30.234Z,8.50
2022-10-12T05:36:58.157Z,5.37
2022-10-12T05:39:24.824Z,6.97
2022-10-12T05:41:54.134Z,7.17
2022-10-12T05:44:20.846Z,5.37
2022-10-12T05:46:47.229Z,7.80
2022-10-12T05:49:13.673Z,5.13
2022-10-12T05:51:40.684Z,6.37
2022-10-12T05:54:07.196Z,7.33
2022-10-12T05:56:33.572Z,9.10
2022-10-12T05:59:00.009Z,6.93
2022-10-12T06:01:26.461Z,7.40
2022-10-12T06:03:54.685Z,6.70
2022-10-12T06:06:21.924Z,5.80
2022-10-12T06:08:48.485Z,5.83
2022-10-12T06:11:14.980Z,3.33
2022-10-12T06:13:41.397Z,5.57
2022-10-12T06:16:07.862Z,4.03
2022-10-12T06:18:34.351Z,6.83
2022-10-12T06:23:47.236Z,4.90
2022-10-12T06:26:13.789Z,5.87
2022-10-12T06:28:40.238Z,5.60
2022-10-12T06:31:06.782Z,8.13
2022-10-12T06:33:33.218Z,10.30
2022-10-12T06:35:59.604Z,7.23
2022-10-12T06:38:26.103Z,6.57
2022-10-12T06:40:53.525Z,5.63
2022-10-12T06:43:22.619Z,6.80
2022-10-12T06:45:49.695Z,6.83
2022-10-12T06:48:18.671Z,6.97
2022-10-12T06:50:47.101Z,10.77
2022-10-12T06:53:13.547Z,9.07
2022-10-12T06:55:40.364Z,8.90
2022-10-12T06:58:06.772Z,7.33
2022-10-12T07:00:33.204Z,9.30
2022-10-12T07:02:59.655Z,7.70
2022-10-12T07:05:26.136Z,9.83
2022-10-12T07:07:52.624Z,7.37
2022-10-12T07:10:19.221Z,9.50
2022-10-12T07:12:45.702Z,6.83
2022-10-12T07:15:12.305Z,10.00
2022-10-12T07:17:39.120Z,7.40
2022-10-12T07:20:06.189Z,10.13
2022-10-12T07:22:33.084Z,8.77
2022-10-12T07:24:59.630Z,14.47
2022-10-12T07:27:26.140Z,9.97
2022-10-12T07:29:52.646Z,9.53
2022-10-12T07:32:19.079Z,8.90
2022-10-12T07:34:45.611Z,9.00
2022-10-12T07:37:12.623Z,9.57
2022-10-12T07:39:41.412Z,6.67
2022-10-12T07:42:08.154Z,7.70
2022-10-12T07:44:34.756Z,7.03
2022-10-12T07:47:01.439Z,8.93
2022-10-12T07:49:27.976Z,10.17
2022-10-12T07:51:54.420Z,8.97
2022-10-12T07:54:25.611Z,10.00
2022-10-12T07:56:55.621Z,5.63
2022-10-12T07:59:22.293Z,9.67
2022-10-12T08:01:48.845Z,8.10
2022-10-12T08:04:15.401Z,12.70
2022-10-12T08:06:43.805Z,8.93
2022-10-12T08:09:10.315Z,8.37
2022-10-12T08:11:41.044Z,10.17
2022-10-12T08:14:13.736Z,8.97
2022-10-12T08:16:42.155Z,8.17
2022-10-12T08:19:08.742Z,7.70
2022-10-12T08:21:35.339Z,6.83
2022-10-12T08:24:01.830Z,9.80
2022-10-12T08:26:29.189Z,6.27
2022-10-12T08:28:56.952Z,6.47
2022-10-12T08:31:23.604Z,6.57
2022-10-12T08:33:50.218Z,8.43
2022-10-12T08:36:16.826Z,7.80
2022-10-12T08:38:43.848Z,8.80
2022-10-12T08:41:22.723Z,9.37
2022-10-12T08:43:58.269Z,5.40
2022-10-12T08:46:26.756Z,8.83
2022-10-12T08:49:13.086Z,5.77
2022-10-12T08:51:51.968Z,5.80
2022-10-12T08:54:27.176Z,5.03
2022-10-12T08:56:54.907Z,5.30
2022-10-12T08:59:23.245Z,5.07
2022-10-12T09:02:29.675Z,5.23
2022-10-12T09:05:18.335Z,6.63
2022-10-12T09:08:10.996Z,6.17
2022-10-12T09:10:59.601Z,3.57
2022-10-12T09:13:42.935Z,8.63
2022-10-12T09:16:25.325Z,6.23
2022-10-12T09:18:58.743Z,4.93
2022-10-12T09:21:33.393Z,5.67
2022-10-12T09:24:25.130Z,5.03
2022-10-12T09:27:13.625Z,6.87
2022-10-12T09:29:47.326Z,7.33
2022-10-12T09:32:36.528Z,7.10
2022-10-12T09:35:06.405Z,4.53
2022-10-12T09:37:35.504Z,7.13
2022-10-12T09:40:05.026Z,7.07
2022-10-12T09:42:34.057Z,9.10
2022-10-12T09:45:21.558Z,8.07
2022-10-12T09:48:47.871Z,7.30
2022-10-12T09:51:16.578Z,8.07
2022-10-12T09:54:05.403Z,8.57
2022-10-12T09:57:07.534Z,8.30
2022-10-12T09:59:42.808Z,10.53
2022-10-12T10:02:23.013Z,10.83
2022-10-12T10:04:54.580Z,9.47
2022-10-12T10:07:35.797Z,9.17
2022-10-12T10:10:32.000Z,13.77
2022-10-12T10:13:06.304Z,16.77
2022-10-12T10:15:39.271Z,13.07
2022-10-12T10:18:23.810Z,12.33
2022-10-12T10:21:17.662Z,13.13
2022-10-12T10:24:00.996Z,12.17
2022-10-12T10:26:56.723Z,8.57
2022-10-12T10:29:28.531Z,11.20
2022-10-12T10:32:12.873Z,13.53
2022-10-12T10:34:41.848Z,9.93
2022-10-12T10:37:19.665Z,5.60
2022-10-12T10:39:49.769Z,9.33
2022-10-12T10:42:20.591Z,7.63
2022-10-12T10:44:58.542Z,8.83
2022-10-12T10:47:25.411Z,10.23
2022-10-12T10:49:57.229Z,8.67
2022-10-12T10:52:33.274Z,6.87
2022-10-12T10:55:19.115Z,8.53
2022-10-12T10:58:03.501Z,8.87
2022-10-12T11:00:39.139Z,9.40
2022-10-12T11:03:52.343Z,8.20
2022-10-12T11:06:24.934Z,9.20
2022-10-12T11:09:00.356Z,9.83
2022-10-12T11:11:31.228Z,8.17
2022-10-12T11:14:42.734Z,46.33
2022-10-12T11:17:31.256Z,8.43
2022-10-12T11:20:20.055Z,10.50
2022-10-12T11:23:10.530Z,10.87
2022-10-12T11:25:49.305Z,11.03
2022-10-12T11:28:16.498Z,8.70
2022-10-12T11:30:50.501Z,11.67
2022-10-12T11:33:27.685Z,13.47
2022-10-12T11:35:55.313Z,12.57
2022-10-12T11:38:37.742Z,10.00
2022-10-12T11:41:34.500Z,11.30
2022-10-12T11:44:03.850Z,10.13
2022-10-12T11:46:48.924Z,12.27
2022-10-12T11:49:37.139Z,13.90
2022-10-12T11:52:09.948Z,11.13
2022-10-12T11:55:06.429Z,8.57
2022-10-12T11:57:37.897Z,11.67
2022-10-12T12:00:19.426Z,10.53
2022-10-12T12:02:54.446Z,11.37
2022-10-12T12:05:21.255Z,12.47
2022-10-12T12:07:59.309Z,14.13
2022-10-12T12:10:31.117Z,10.13
2022-10-12T12:13:23.033Z,10.47
2022-10-12T12:15:52.596Z,10.63
2022-10-12T12:18:22.090Z,11.67
2022-10-12T12:20:48.579Z,7.90
2022-10-12T12:23:54.460Z,9.60
2022-10-12T12:26:26.932Z,10.73
2022-10-12T12:29:26.542Z,11.20
2022-10-12T12:32:01.661Z,9.60
2022-10-12T12:34:28.760Z,8.40
2022-10-12T12:36:55.335Z,8.93
2022-10-12T12:39:26.229Z,8.97
2022-10-12T12:42:01.679Z,9.67
2022-10-12T12:44:37.991Z,11.97
2022-10-12T12:47:26.144Z,9.07
2022-10-12T12:50:00.959Z,8.47
2022-10-12T12:52:34.686Z,7.07
2022-10-12T12:55:16.434Z,10.67
2022-10-12T12:58:20.676Z,10.87
2022-10-12T13:01:09.016Z,10.27
2022-10-12T13:04:09.760Z,10.73
2022-10-12T13:07:06.431Z,11.80
2022-10-12T13:09:47.183Z,11.37
2022-10-12T13:12:28.905Z,10.83
2022-10-12T13:15:18.582Z,11.87
2022-10-12T13:18:18.687Z,10.23
2022-10-12T13:20:57.519Z,9.23
2022-10-12T13:23:27.087Z,9.13
2022-10-12T13:25:59.025Z,8.47
2022-10-12T13:28:29.810Z,11.60
2022-10-12T13:31:04.455Z,13.07
2022-10-12T13:33:40.697Z,9.50
2022-10-12T13:36:23.629Z,12.27
2022-10-12T13:38:56.061Z,13.33
2022-10-12T13:41:25.500Z,14.13
2022-10-12T13:43:58.353Z,12.17
2022-10-12T13:46:44.627Z,14.13
2022-10-12T13:49:29.436Z,13.87
2022-10-12T13:52:15.825Z,13.60
2022-10-12T13:54:47.399Z,13.63
2022-10-12T13:57:19.859Z,16.47
2022-10-12T13:59:49.884Z,16.97
2022-10-12T14:02:21.551Z,19.30
2022-10-12T14:04:48.049Z,17.33
2022-10-12T14:07:32.125Z,15.67
2022-10-12T14:10:05.909Z,15.87
2022-10-12T14:12:34.946Z,15.53
2022-10-12T14:15:02.674Z,15.90
2022-10-12T14:17:30.217Z,15.87
2022-10-12T14:20:13.770Z,14.90
2022-10-12T14:22:47.238Z,14.17
2022-10-12T14:25:20.338Z,15.53
2022-10-12T14:27:57.600Z,12.23
2022-10-12T14:30:28.741Z,15.47
2022-10-12T14:33:17.026Z,13.80
2022-10-12T14:35:46.620Z,16.70
2022-10-12T14:38:38.325Z,14.63
2022-10-12T14:41:29.777Z,14.20
2022-10-12T14:44:17.632Z,14.27
2022-10-12T14:46:52.410Z,13.17
2022-10-12T14:49:22.492Z,16.10
2022-10-12T14:51:50.493Z,15.43
2022-10-12T14:54:16.925Z,14.77
2022-10-12T14:56:43.393Z,14.17
2022-10-12T14:59:09.922Z,16.10
2022-10-12T15:01:40.945Z,16.63
2022-10-12T15:04:12.745Z,13.83
2022-10-12T15:06:39.754Z,19.30
2022-10-12T15:09:06.299Z,12.73
2022-10-12T15:11:32.873Z,16.70
2022-10-12T15:13:59.418Z,15.73
2022-10-12T15:16:28.608Z,13.93
2022-10-12T15:18:55.062Z,17.87
2022-10-12T15:21:21.529Z,16.13
2022-10-12T15:23:48.025Z,17.07
2022-10-12T15:26:17.608Z,16.40
2022-10-12T15:28:45.114Z,15.60
2022-10-12T15:31:18.561Z,16.67
2022-10-12T15:33:45.770Z,13.87
2022-10-12T15:36:12.269Z,15.60
2022-10-12T15:38:39.088Z,17.37
2022-10-12T15:41:05.865Z,13.77
2022-10-12T15:43:33.764Z,16.53
2022-10-12T15:46:02.217Z,16.37
2022-10-12T15:48:29.000Z,15.97
2022-10-12T15:50:55.691Z,14.47
2022-10-12T15:53:24.713Z,13.57
2022-10-12T15:55:55.681Z,14.40
2022-10-12T15:58:22.400Z,16.83
2022-10-12T16:00:49.530Z,15.23
2022-10-12T16:03:24.585Z,17.73
2022-10-12T16:05:51.913Z,13.10
2022-10-12T16:08:18.412Z,14.33
2022-10-12T16:10:46.085Z,16.67
2022-10-12T16:13:13.882Z,17.20
2022-10-12T16:15:41.771Z,15.37
2022-10-12T16:18:08.928Z,12.40
2022-10-12T16:20:37.485Z,16.13
2022-10-12T16:23:07.736Z,14.43
2022-10-12T16:25:35.015Z,19.83
2022-10-12T16:28:01.487Z,16.40
2022-10-12T16:30:27.988Z,15.00
2022-10-12T16:32:54.575Z,18.53
2022-10-12T16:35:21.475Z,16.07
2022-10-12T16:37:48.320Z,15.13
2022-10-12T16:40:15.762Z,15.33
2022-10-12T16:42:42.781Z,15.67
2022-10-12T16:45:09.677Z,14.87
2022-10-12T16:47:41.923Z,13.27
2022-10-12T16:50:10.073Z,17.60
2022-10-12T16:52:36.582Z,15.60
2022-10-12T16:55:03.247Z,15.90
2022-10-12T16:57:29.700Z,17.07
2022-10-12T16:59:56.337Z,17.13
2022-10-12T17:02:22.813Z,19.90
2022-10-12T17:04:49.305Z,22.67
2022-10-12T17:07:16.313Z,23.53
2022-10-12T17:09:42.892Z,22.20
2022-10-12T17:12:09.710Z,23.63
2022-10-12T17:14:36.237Z,23.03
2022-10-12T17:17:02.949Z,21.73
2022-10-12T17:19:32.343Z,23.47
2022-10-12T17:22:01.103Z,22.60
2022-10-12T17:24:29.679Z,24.27
2022-10-12T17:26:57.521Z,20.93
2022-10-12T17:29:26.304Z,18.57
2022-10-12T17:31:54.896Z,21.07
2022-10-12T17:34:24.282Z,21.50
2022-10-12T17:36:52.273Z,21.80
2022-10-12T17:39:19.089Z,21.73
2022-10-12T17:41:45.785Z,22.17
2022-10-12T17:44:12.326Z,18.53
2022-10-12T17:46:39.903Z,18.63
2022-10-12T17:49:07.878Z,20.23
2022-10-12T17:51:34.403Z,20.97
2022-10-12T17:54:01.320Z,20.53
2022-10-12T17:56:28.017Z,20.53
2022-10-12T17:59:01.007Z,22.67
2022-10-12T18:01:30.052Z,22.27
2022-10-12T18:04:00.329Z,20.03
2022-10-12T18:06:27.056Z,19.93
2022-10-12T18:08:53.638Z,20.80
2022-10-12T18:11:21.281Z,23.57
2022-10-12T18:13:49.923Z,22.47
2022-10-12T18:16:18.752Z,17.07
2022-10-12T18:18:45.460Z,22.83
2022-10-12T18:21:14.058Z,25.77
2022-10-12T18:23:41.011Z,19.97
2022-10-12T18:26:09.892Z,25.37
2022-10-12T18:28:37.525Z,19.20
2022-10-12T18:31:04.820Z,19.53
2022-10-12T18:33:31.889Z,18.37
2022-10-12T18:36:06.256Z,17.90
2022-10-12T18:38:33.918Z,17.07
2022-10-12T18:41:08.427Z,17.20
2022-10-12T18:43:35.056Z,21.77
2022-10-12T18:46:09.548Z,20.90
2022-10-12T18:48:36.299Z,18.57
2022-10-12T18:51:07.992Z,16.60
2022-10-12T18:53:35.309Z,19.40
2022-10-12T18:56:04.022Z,22.57
2022-10-12T18:58:31.300Z,24.60
2022-10-12T19:00:58.163Z,20.93
2022-10-12T19:03:25.656Z,27.07
2022-10-12T19:05:52.525Z,24.93
2022-10-12T19:08:19.172Z,24.57
2022-10-12T19:10:45.711Z,19.33
2022-10-12T19:13:12.283Z,22.97
2022-10-12T19:15:38.972Z,21.23
2022-10-12T19:18:05.915Z,26.20
2022-10-12T19:20:35.606Z,20.27
2022-10-12T19:23:02.172Z,24.13
2022-10-12T19:25:28.641Z,19.80
2022-10-12T19:27:55.133Z,23.33
2022-10-12T19:30:21.638Z,24.03
2022-10-12T19:32:48.711Z,18.17
2022-10-12T19:35:15.333Z,20.10
2022-10-12T19:37:41.768Z,19.00
2022-10-12T19:40:12.360Z,21.23
2022-10-12T19:42:38.932Z,19.73
2022-10-12T19:45:05.813Z,21.77
2022-10-12T19:47:32.444Z,16.77
2022-10-12T19:49:58.896Z,20.73
2022-10-12T19:52:25.419Z,18.63
2022-10-12T19:54:51.991Z,18.07
2022-10-12T19:57:18.480Z,18.30
2022-10-12T19:59:44.980Z,18.20
2022-10-12T20:02:11.805Z,21.13
2022-10-12T20:04:38.343Z,20.03
2022-10-12T20:07:04.820Z,16.80
2022-10-12T20:09:31.364Z,20.27
2022-10-12T20:11:57.857Z,18.07
2022-10-12T20:14:25.639Z,20.17
2022-10-12T20:16:52.372Z,19.23
2022-10-12T20:19:18.895Z,19.60
2022-10-12T20:21:45.381Z,24.13
2022-10-12T20:24:11.881Z,21.30
2022-10-12T20:26:40.917Z,18.17
2022-10-12T20:29:07.478Z,17.90
2022-10-12T20:31:34.013Z,16.17
2022-10-12T20:34:00.533Z,17.97
2022-10-12T20:36:29.991Z,20.97
2022-10-12T20:38:58.105Z,18.63
2022-10-12T20:41:25.651Z,19.00
2022-10-12T20:44:00.188Z,22.50
2022-10-12T20:46:28.606Z,23.17
2022-10-12T20:48:58.821Z,19.30
2022-10-12T20:51:28.802Z,19.47
2022-10-12T20:53:58.825Z,18.20
2022-10-12T20:56:30.988Z,20.23
2022-10-12T20:58:58.399Z,21.60
2022-10-12T21:01:28.484Z,20.73
2022-10-12T21:03:55.302Z,22.50
2022-10-12T21:06:23.469Z,20.87
2022-10-12T21:08:51.642Z,19.17
2022-10-12T21:11:18.427Z,22.17
2022-10-12T21:13:46.053Z,22.00
2022-10-12T21:16:13.910Z,23.57
2022-10-12T21:18:40.923Z,21.93
2022-10-12T21:21:12.204Z,19.83
2022-10-12T21:23:44.183Z,21.03
2022-10-12T21:26:13.057Z,19.93
2022-10-12T21:28:39.762Z,22.37
2022-10-12T21:31:07.267Z,25.77
2022-10-12T21:33:37.313Z,25.90
2022-10-12T21:36:16.582Z,22.47
2022-10-12T21:38:43.476Z,44.93
2022-10-12T21:41:11.750Z,53.90
2022-10-12T21:43:39.150Z,75.97
2022-10-12T21:46:08.935Z,38.70
2022-10-12T21:48:36.085Z,30.43
2022-10-12T21:51:03.559Z,27.67
2022-10-12T21:53:30.892Z,25.27
2022-10-12T21:55:57.877Z,23.87
2022-10-12T21:58:24.428Z,28.27
2022-10-12T22:00:51.039Z,35.47
2022-10-12T22:03:17.779Z,39.03
2022-10-12T22:05:44.664Z,37.73
2022-10-12T22:08:11.405Z,38.97
2022-10-12T22:10:39.266Z,42.73
2022-10-12T22:13:07.058Z,38.63
2022-10-12T22:15:34.955Z,33.53
2022-10-12T22:18:09.794Z,42.20
2022-10-12T22:20:37.395Z,36.90
2022-10-12T22:23:04.482Z,36.73
2022-10-12T22:25:30.976Z,32.30
2022-10-12T22:28:00.427Z,37.57
2022-10-12T22:30:29.024Z,29.17
2022-10-12T22:32:55.486Z,34.77
2022-10-12T22:35:22.122Z,26.33
2022-10-12T22:37:48.806Z,31.70
2022-10-12T22:40:15.408Z,34.53
2022-10-12T22:42:41.968Z,37.03
2022-10-12T22:45:09.150Z,34.87
2022-10-12T22:47:35.637Z,24.10
2022-10-12T22:50:02.948Z,23.67
2022-10-12T22:52:29.424Z,37.47
2022-10-12T22:54:55.912Z,34.70
2022-10-12T22:57:22.429Z,30.70
2022-10-12T22:59:50.201Z,23.07
2022-10-12T23:02:17.024Z,20.10
2022-10-12T23:04:43.873Z,27.40
2022-10-12T23:07:10.400Z,21.67
2022-10-12T23:09:36.906Z,36.57
2022-10-12T23:12:03.541Z,31.83
2022-10-12T23:14:30.480Z,30.87
2022-10-12T23:16:56.925Z,39.17
2022-10-12T23:19:26.309Z,28.30
2022-10-12T23:21:52.747Z,37.10
2022-10-12T23:24:19.313Z,43.17
2022-10-12T23:26:45.815Z,23.67
2022-10-12T23:29:12.352Z,25.73
2022-10-12T23:31:38.931Z,29.60
2022-10-12T23:34:06.410Z,32.20
2022-10-12T23:36:34.222Z,38.30
2022-10-12T23:39:02.315Z,34.47
2022-10-12T23:41:28.898Z,29.20
2022-10-12T23:43:55.408Z,28.27
2022-10-12T23:46:21.900Z,33.00
2022-10-12T23:48:48.342Z,32.77
2022-10-12T23:51:14.850Z,29.40
2022-10-12T23:53:42.559Z,32.83
2022-10-12T23:56:09.825Z,30.03
2022-10-12T23:58:36.634Z,26.23
